createdAt,value
2024-02-19T00:01:33.104Z,8.40
2024-02-19T00:05:35.224Z,7.90
2024-02-19T00:09:37.330Z,7.90
2024-02-19T00:13:39.473Z,7.60
2024-02-19T00:17:41.496Z,8.00
2024-02-19T00:21:43.634Z,8.00
2024-02-19T00:25:46.255Z,7.90
2024-02-19T00:29:48.297Z,8.00
2024-02-19T00:33:50.665Z,7.30
2024-02-19T00:37:53.060Z,7.00
2024-02-19T00:41:55.093Z,6.90
2024-02-19T00:45:57.199Z,7.60
2024-02-19T00:49:59.296Z,7.90
2024-02-19T00:54:01.322Z,8.30
2024-02-19T00:58:03.529Z,8.40
2024-02-19T01:02:05.733Z,8.50
2024-02-19T01:06:08.038Z,8.00
2024-02-19T01:10:11.020Z,8.00
2024-02-19T01:14:13.084Z,8.20
2024-02-19T01:18:16.680Z,7.90
2024-02-19T01:22:19.071Z,8.00
2024-02-19T01:26:24.173Z,8.30
2024-02-19T01:30:27.841Z,8.30
2024-02-19T01:34:31.292Z,8.50
2024-02-19T01:38:33.657Z,8.30
2024-02-19T01:42:35.994Z,8.20
2024-02-19T01:46:43.207Z,7.80
2024-02-19T01:50:48.995Z,7.80
2024-02-19T01:54:51.074Z,8.10
2024-02-19T01:58:53.657Z,7.90
2024-02-19T02:02:56.487Z,7.80
2024-02-19T02:06:59.236Z,7.70
2024-02-19T02:11:01.336Z,7.90
2024-02-19T02:15:04.246Z,7.90
2024-02-19T02:19:06.290Z,7.80
2024-02-19T02:23:08.870Z,7.60
2024-02-19T02:27:11.308Z,7.60
2024-02-19T02:31:13.570Z,7.10
2024-02-19T02:35:16.360Z,6.90
2024-02-19T02:39:18.757Z,6.80
2024-02-19T02:43:21.151Z,6.80
2024-02-19T02:47:23.348Z,7.30
2024-02-19T02:51:25.462Z,7.30
2024-02-19T02:55:27.636Z,7.20
2024-02-19T02:59:29.635Z,7.00
2024-02-19T03:03:34.362Z,6.80
2024-02-19T03:07:36.723Z,6.30
2024-02-19T03:11:38.814Z,6.40
2024-02-19T03:15:40.864Z,6.40
2024-02-19T03:19:45.038Z,6.40
2024-02-19T03:23:53.920Z,6.60
2024-02-19T03:27:55.921Z,6.90
2024-02-19T03:31:58.697Z,7.30
2024-02-19T03:36:00.864Z,7.70
2024-02-19T03:40:05.215Z,7.60
2024-02-19T03:44:07.176Z,7.20
2024-02-19T03:48:09.247Z,6.90
2024-02-19T03:52:14.282Z,7.20
2024-02-19T03:56:16.390Z,7.00
2024-02-19T04:00:18.945Z,7.10
2024-02-19T04:04:21.743Z,7.10
2024-02-19T04:08:23.793Z,7.20
2024-02-19T04:12:25.922Z,6.80
2024-02-19T04:16:27.846Z,7.00
2024-02-19T04:20:29.859Z,6.40
2024-02-19T04:24:31.829Z,6.70
2024-02-19T04:28:33.879Z,7.20
2024-02-19T04:32:36.058Z,6.90
2024-02-19T04:36:38.199Z,6.30
2024-02-19T04:40:40.162Z,6.50
2024-02-19T04:44:42.622Z,6.10
2024-02-19T04:48:44.655Z,6.90
2024-02-19T04:52:46.677Z,7.20
2024-02-19T04:56:48.652Z,7.30
2024-02-19T05:00:51.495Z,7.00
2024-02-19T05:04:53.613Z,6.70
2024-02-19T05:08:56.108Z,6.70
2024-02-19T05:12:58.391Z,6.90
2024-02-19T05:17:01.693Z,6.40
2024-02-19T05:21:07.489Z,6.60
2024-02-19T05:25:09.873Z,7.20
2024-02-19T05:29:12.604Z,7.30
2024-02-19T05:33:19.387Z,7.60
2024-02-19T05:37:22.032Z,7.90
2024-02-19T05:41:24.104Z,7.90
2024-02-19T05:45:26.286Z,7.10
2024-02-19T05:49:28.768Z,6.90
2024-02-19T05:53:31.715Z,6.90
2024-02-19T05:57:34.746Z,6.80
2024-02-19T06:01:37.306Z,6.90
2024-02-19T06:05:39.554Z,6.90
2024-02-19T06:09:41.870Z,6.50
2024-02-19T06:13:44.124Z,6.10
2024-02-19T06:17:47.046Z,5.80
2024-02-19T06:21:49.195Z,5.80
2024-02-19T06:25:51.424Z,5.70
2024-02-19T06:29:53.541Z,5.70
2024-02-19T06:33:56.700Z,5.90
2024-02-19T06:37:58.920Z,5.30
2024-02-19T06:42:01.028Z,5.00
2024-02-19T06:46:03.944Z,5.10
2024-02-19T06:50:06.540Z,4.80
2024-02-19T06:54:08.561Z,4.90
2024-02-19T06:58:10.523Z,5.40
2024-02-19T07:02:13.202Z,5.60
2024-02-19T07:06:15.356Z,5.70
2024-02-19T07:10:19.154Z,6.20
2024-02-19T07:14:21.242Z,6.20
2024-02-19T07:18:23.477Z,7.00
2024-02-19T07:22:25.649Z,6.30
2024-02-19T07:26:27.749Z,5.50
2024-02-19T07:30:30.034Z,5.90
2024-02-19T07:34:32.135Z,5.20
2024-02-19T07:38:34.203Z,5.50
2024-02-19T07:42:37.950Z,5.70
2024-02-19T07:46:40.176Z,5.50
2024-02-19T07:50:42.789Z,6.30
2024-02-19T07:54:46.141Z,5.80
2024-02-19T07:58:48.362Z,5.50
2024-02-19T08:02:51.404Z,5.70
2024-02-19T08:06:55.197Z,6.10
2024-02-19T08:10:59.521Z,6.40
2024-02-19T08:15:02.493Z,6.00
2024-02-19T08:19:05.273Z,6.50
2024-02-19T08:23:08.105Z,6.30
2024-02-19T08:27:10.191Z,6.30
2024-02-19T08:31:12.254Z,6.70
2024-02-19T08:35:14.673Z,6.80
2024-02-19T08:39:16.795Z,6.40
2024-02-19T08:43:18.998Z,6.70
2024-02-19T08:47:21.578Z,6.60
2024-02-19T08:51:26.600Z,6.60
2024-02-19T08:55:28.638Z,6.70
2024-02-19T08:59:30.725Z,7.00
2024-02-19T09:03:33.081Z,6.40
2024-02-19T09:07:35.227Z,6.20
2024-02-19T09:11:37.457Z,5.80
2024-02-19T09:15:39.589Z,6.20
2024-02-19T09:19:41.895Z,5.90
2024-02-19T09:23:44.112Z,6.00
2024-02-19T09:27:46.158Z,6.30
2024-02-19T09:31:48.172Z,6.90
2024-02-19T09:35:50.826Z,6.40
2024-02-19T09:39:59.537Z,6.20
2024-02-19T09:44:01.579Z,5.90
2024-02-19T09:48:05.279Z,5.90
2024-02-19T09:52:10.651Z,5.50
2024-02-19T09:56:18.612Z,5.60
2024-02-19T10:00:23.010Z,5.30
2024-02-19T10:04:26.689Z,5.60
2024-02-19T10:08:28.833Z,5.60
2024-02-19T10:12:30.809Z,5.80
2024-02-19T10:16:33.411Z,5.70
2024-02-19T10:20:44.800Z,6.00
2024-02-19T10:24:46.885Z,6.40
2024-02-19T10:28:51.738Z,5.90
2024-02-19T10:32:54.160Z,6.20
2024-02-19T10:36:56.174Z,6.20
2024-02-19T10:40:58.203Z,6.10
2024-02-19T10:45:00.372Z,6.00
2024-02-19T10:49:02.636Z,6.00
2024-02-19T10:53:07.035Z,7.10
2024-02-19T10:57:09.171Z,7.10
2024-02-19T11:01:11.303Z,7.40
2024-02-19T11:05:14.512Z,7.30
2024-02-19T11:09:28.026Z,6.70
2024-02-19T11:13:36.494Z,7.50
2024-02-19T11:17:38.497Z,7.00
2024-02-19T11:21:40.713Z,6.40
2024-02-19T11:25:44.347Z,6.40
2024-02-19T11:29:48.336Z,6.70
2024-02-19T11:33:51.297Z,6.90
2024-02-19T11:37:53.298Z,6.90
2024-02-19T11:41:55.651Z,6.20
2024-02-19T11:46:00.328Z,6.20
2024-02-19T11:50:02.791Z,6.20
2024-02-19T11:54:11.136Z,5.80
2024-02-19T11:58:13.545Z,5.50
2024-02-19T12:02:19.864Z,6.10
2024-02-19T12:06:22.045Z,6.30
2024-02-19T12:10:24.196Z,6.50
2024-02-19T12:14:26.677Z,6.10
2024-02-19T12:18:29.874Z,6.40
2024-02-19T12:22:32.116Z,6.10
2024-02-19T12:26:35.652Z,6.40
2024-02-19T12:30:37.759Z,6.70
2024-02-19T12:34:40.720Z,5.70
2024-02-19T12:38:43.733Z,6.50
2024-02-19T12:42:46.423Z,6.30
2024-02-19T12:46:48.689Z,6.80
2024-02-19T12:50:50.984Z,6.40
2024-02-19T12:54:53.102Z,6.20
2024-02-19T12:58:55.460Z,6.50
2024-02-19T13:02:57.839Z,6.10
2024-02-19T13:07:02.149Z,6.10
2024-02-19T13:11:04.724Z,6.40
2024-02-19T13:15:07.229Z,6.50
2024-02-19T13:19:09.944Z,6.00
2024-02-19T13:23:12.128Z,6.70
2024-02-19T13:27:14.334Z,7.10
2024-02-19T13:31:18.508Z,7.40
2024-02-19T13:35:20.879Z,7.50
2024-02-19T13:39:23.047Z,7.30
2024-02-19T13:43:25.626Z,6.80
2024-02-19T13:47:27.906Z,7.10
2024-02-19T13:51:30.195Z,6.50
2024-02-19T13:55:32.284Z,6.70
2024-02-19T13:59:34.397Z,6.90
2024-02-19T14:03:36.670Z,7.10
2024-02-19T14:07:39.240Z,7.10
2024-02-19T14:11:41.343Z,7.20
2024-02-19T14:15:43.519Z,6.60
2024-02-19T14:19:45.666Z,6.60
2024-02-19T14:23:50.317Z,6.50
2024-02-19T14:27:55.180Z,7.40
2024-02-19T14:31:58.488Z,8.20
2024-02-19T14:36:00.856Z,8.30
2024-02-19T14:40:04.933Z,8.20
2024-02-19T14:44:07.002Z,8.60
2024-02-19T14:48:09.585Z,8.80
2024-02-19T14:52:11.913Z,9.00
2024-02-19T14:56:14.020Z,8.40
2024-02-19T15:00:23.029Z,8.00
2024-02-19T15:04:25.986Z,7.80
2024-02-19T15:08:28.322Z,8.60
2024-02-19T15:12:30.619Z,8.90
2024-02-19T15:16:32.814Z,9.20
2024-02-19T15:20:34.933Z,9.10
2024-02-19T15:24:37.567Z,8.20
2024-02-19T15:28:39.780Z,7.40
2024-02-19T15:32:41.994Z,7.90
2024-02-19T15:36:44.098Z,8.20
2024-02-19T15:40:46.036Z,8.20
2024-02-19T15:44:52.097Z,8.10
2024-02-19T15:48:54.379Z,8.20
2024-02-19T15:53:01.848Z,7.90
2024-02-19T15:57:08.345Z,8.40
2024-02-19T16:01:11.447Z,8.70
2024-02-19T16:05:13.888Z,8.70
2024-02-19T16:09:15.957Z,8.60
2024-02-19T16:13:18.013Z,8.60
2024-02-19T16:17:20.356Z,8.50
2024-02-19T16:21:22.353Z,8.50
2024-02-19T16:25:24.574Z,8.70
2024-02-19T16:29:29.132Z,8.70
2024-02-19T16:33:31.981Z,8.70
2024-02-19T16:37:34.329Z,8.70
2024-02-19T16:41:36.391Z,8.70
2024-02-19T16:45:38.997Z,8.70
2024-02-19T16:49:41.333Z,8.60
2024-02-19T16:53:47.997Z,8.80
2024-02-19T16:57:50.234Z,8.90
2024-02-19T17:01:52.800Z,8.90
2024-02-19T17:05:55.455Z,8.90
2024-02-19T17:09:58.886Z,8.90
2024-02-19T17:14:02.476Z,8.90
2024-02-19T17:18:06.253Z,8.70
2024-02-19T17:22:08.543Z,8.60
2024-02-19T17:26:10.746Z,8.70
2024-02-19T17:30:13.501Z,8.70
2024-02-19T17:34:15.641Z,8.70
2024-02-19T17:38:17.794Z,8.80
2024-02-19T17:42:22.474Z,8.80
2024-02-19T17:46:25.404Z,8.80
2024-02-19T17:50:27.622Z,8.90
2024-02-19T17:54:30.841Z,8.80
2024-02-19T17:58:33.397Z,8.90
2024-02-19T18:02:35.561Z,8.70
2024-02-19T18:06:38.067Z,8.80
2024-02-19T18:10:40.166Z,8.80
2024-02-19T18:14:42.248Z,8.60
2024-02-19T18:18:45.849Z,8.30
2024-02-19T18:22:48.110Z,8.40
2024-02-19T18:26:50.473Z,8.50
2024-02-19T18:30:53.196Z,8.60
2024-02-19T18:34:55.360Z,8.70
2024-02-19T18:38:57.503Z,8.50
2024-02-19T18:42:59.644Z,8.60
2024-02-19T18:47:04.034Z,8.60
2024-02-19T18:51:07.174Z,8.60
2024-02-19T18:55:09.518Z,8.40
2024-02-19T18:59:11.643Z,8.00
2024-02-19T19:03:13.753Z,8.00
2024-02-19T19:07:18.657Z,7.70
2024-02-19T19:11:21.157Z,7.90
2024-02-19T19:15:23.729Z,7.70
2024-02-19T19:19:25.957Z,7.90
2024-02-19T19:23:28.205Z,8.10
2024-02-19T19:27:30.411Z,7.90
2024-02-19T19:31:33.364Z,8.00
2024-02-19T19:35:37.511Z,8.20
2024-02-19T19:39:39.478Z,8.20
2024-02-19T19:43:41.664Z,8.20
2024-02-19T19:47:44.021Z,8.20
2024-02-19T19:51:46.289Z,8.30
2024-02-19T19:55:48.606Z,8.30
2024-02-19T19:59:52.097Z,8.20
2024-02-19T20:03:54.292Z,8.20
2024-02-19T20:07:56.501Z,8.00
2024-02-19T20:11:58.495Z,8.10
2024-02-19T20:16:02.536Z,8.10
2024-02-19T20:20:06.126Z,8.20
2024-02-19T20:24:09.061Z,8.20
2024-02-19T20:28:11.232Z,8.30
2024-02-19T20:32:15.524Z,8.30
2024-02-19T20:36:17.784Z,8.40
2024-02-19T20:40:20.042Z,8.30
2024-02-19T20:44:22.279Z,8.20
2024-02-19T20:48:24.622Z,8.30
2024-02-19T20:52:27.382Z,8.40
2024-02-19T20:56:29.932Z,8.40
2024-02-19T21:00:32.150Z,8.40
2024-02-19T21:04:36.363Z,8.30
2024-02-19T21:08:38.916Z,8.30
2024-02-19T21:12:42.134Z,8.40
2024-02-19T21:16:44.939Z,8.40
2024-02-19T21:20:47.193Z,8.40
2024-02-19T21:24:49.234Z,8.40
2024-02-19T21:28:51.671Z,8.60
2024-02-19T21:32:53.932Z,8.40
2024-02-19T21:36:58.477Z,8.50
2024-02-19T21:41:01.735Z,8.40
2024-02-19T21:45:04.878Z,8.40
2024-02-19T21:49:07.065Z,8.40
2024-02-19T21:53:09.328Z,8.40
2024-02-19T21:57:11.533Z,8.40
2024-02-19T22:01:13.827Z,8.50
2024-02-19T22:05:16.454Z,8.40
2024-02-19T22:09:18.869Z,8.40
2024-02-19T22:13:20.861Z,8.30
2024-02-19T22:17:23.477Z,8.30
2024-02-19T22:21:25.486Z,8.00
2024-02-19T22:25:27.541Z,6.70
2024-02-19T22:29:29.768Z,6.60
2024-02-19T22:33:31.906Z,7.00
2024-02-19T22:37:34.192Z,6.30
2024-02-19T22:41:37.405Z,6.50
2024-02-19T22:45:41.237Z,6.90
2024-02-19T22:49:43.593Z,7.30
2024-02-19T22:53:45.640Z,7.10
2024-02-19T22:57:47.662Z,7.30
2024-02-19T23:01:51.362Z,7.20
2024-02-19T23:05:53.728Z,7.00
2024-02-19T23:09:56.109Z,7.30
2024-02-19T23:13:58.167Z,7.30
2024-02-19T23:18:03.124Z,7.20
2024-02-19T23:22:05.342Z,7.50
2024-02-19T23:26:08.951Z,7.70
2024-02-19T23:30:11.242Z,7.50
2024-02-19T23:34:14.354Z,7.70
2024-02-19T23:38:19.735Z,7.80
2024-02-19T23:42:22.003Z,8.00
2024-02-19T23:46:24.050Z,8.00
2024-02-19T23:50:26.134Z,8.00
2024-02-19T23:54:30.918Z,8.10
2024-02-19T23:58:34.402Z,8.10
